Terminal Aerodrome Forecast
Issued by NWS

Home | Current Version | Previous Version | Text Only | Print | Product List | Glossary On
Versions: 1 2 3 4 5 6 7 8 9 10 11 12 13 14 15 16 17 18 19 20 21 22 23 24 25 26 27 28 29 30
411
FTUS43 KDTX 232327
TAFYIP
TAF
KYIP 232327Z 2400/2424 18007KT P6SM BKN250
     FM241600 20010KT P6SM -SHRA SCT050 OVC100
     FM242000 22013G20KT 6SM -SHRA BKN040 OVC080 PROB30 2420/2424
      3SM TSRA OVC030CB=

USA.gov is the U.S. government's official web portal to all federal, state and local government web resources and services.